Lansing, Michigan
Current Conditions -  °F | °C
As of 1:53 AM on Saturday 25 Oct 2014 (Local Time) from KLAN Reporting Station
Haze Haze  
Wind Chill: 45°   Ceiling: Unl
Heat Index: 45°   Visibility: 3mi
Dew Point: 42°   Wind: 0mph
Humidity: 90%   Direction: NA
Pressure: 29.93"   Gusts: NA
Location:  42.73°N, 84.55°W
Report Text: KLAN 250553Z 00000KT 3SM BR CLR 07/06 A2993 RMK AO2 SLP138 T00720056 10128 20061 56013
Loading
Personal Weather Stations






























Interactive Weather Map New forecast layout! Learn more

10-Day Weather Forecast

Advertisements
Track Severe Weather on mobile